createdAt,value
2023-04-24T00:00:14.973Z, 37.14
2023-04-24T00:01:14.995Z, 37.15
2023-04-24T00:02:15.139Z, 37.09
2023-04-24T00:03:15.216Z, 37.07
2023-04-24T00:04:15.334Z, 37.11
2023-04-24T00:05:15.102Z, 37.12
2023-04-24T00:06:15.096Z, 37.06
2023-04-24T00:07:15.099Z, 37.05
2023-04-24T00:08:15.108Z, 37.07
2023-04-24T00:09:15.192Z, 37.06
2023-04-24T00:10:15.158Z, 37.06
2023-04-24T00:11:15.159Z, 37.05
2023-04-24T00:12:15.173Z, 37.02
2023-04-24T00:13:15.163Z, 37.01
2023-04-24T00:14:15.168Z, 37.04
2023-04-24T00:15:15.178Z, 37.03
2023-04-24T00:16:15.273Z, 37.05
2023-04-24T00:17:15.247Z, 37.05
2023-04-24T00:18:15.277Z, 37.07
2023-04-24T00:19:15.258Z, 37.05
2023-04-24T00:20:15.358Z, 37.05
2023-04-24T00:21:15.319Z, 36.98
2023-04-24T00:22:15.309Z, 36.96
2023-04-24T00:23:15.320Z, 36.97
2023-04-24T00:24:15.315Z, 36.96
2023-04-24T00:25:15.385Z, 36.98
2023-04-24T00:26:15.343Z, 36.94
2023-04-24T00:27:15.336Z, 36.89
2023-04-24T00:28:15.336Z, 36.87
2023-04-24T00:29:15.340Z, 36.89
2023-04-24T00:30:15.447Z, 36.89
2023-04-24T00:31:15.396Z, 36.89
2023-04-24T00:32:15.626Z, 36.90
2023-04-24T00:33:15.439Z, 36.93
2023-04-24T00:34:15.491Z, 36.90
2023-04-24T00:35:15.499Z, 36.88
2023-04-24T00:36:15.484Z, 36.83
2023-04-24T00:37:15.464Z, 36.83
2023-04-24T00:38:15.467Z, 36.82
2023-04-24T00:39:15.549Z, 36.82
2023-04-24T00:40:15.524Z, 36.83
2023-04-24T00:41:15.518Z, 36.82
2023-04-24T00:42:15.570Z, 36.84
2023-04-24T00:43:15.546Z, 36.83
2023-04-24T00:44:15.545Z, 36.80
2023-04-24T00:45:15.567Z, 36.77
2023-04-24T00:46:15.593Z, 36.73
2023-04-24T00:47:15.642Z, 36.72
2023-04-24T00:48:15.631Z, 36.70
2023-04-24T00:49:15.624Z, 36.68
2023-04-24T00:50:15.636Z, 36.65
2023-04-24T00:51:15.636Z, 36.65
2023-04-24T00:52:15.688Z, 36.64
2023-04-24T00:53:15.657Z, 36.66
2023-04-24T00:54:15.710Z, 36.65
2023-04-24T00:55:15.705Z, 36.66
2023-04-24T00:56:15.766Z, 36.63
2023-04-24T00:57:15.757Z, 36.64
2023-04-24T00:58:15.762Z, 36.57
2023-04-24T00:59:15.755Z, 36.55
2023-04-24T01:00:15.770Z, 36.58
2023-04-24T01:01:15.858Z, 36.62
2023-04-24T01:02:15.859Z, 36.65
2023-04-24T01:04:15.884Z, 36.58
2023-04-24T01:05:15.842Z, 36.59
2023-04-24T01:06:15.896Z, 36.59
2023-04-24T01:07:15.886Z, 36.53
2023-04-24T01:08:15.869Z, 36.54
2023-04-24T01:09:15.890Z, 36.57
2023-04-24T01:10:15.892Z, 36.53
2023-04-24T01:11:15.886Z, 36.57
2023-04-24T01:12:15.891Z, 36.53
2023-04-24T01:13:15.893Z, 36.56
2023-04-24T01:14:15.892Z, 36.53
2023-04-24T01:15:15.933Z, 36.52
2023-04-24T01:16:15.968Z, 36.49
2023-04-24T01:17:15.960Z, 36.48
2023-04-24T01:18:15.989Z, 36.50
2023-04-24T01:19:15.975Z, 36.44
2023-04-24T01:20:15.976Z, 36.43
2023-04-24T01:21:15.985Z, 36.44
2023-04-24T01:22:16.007Z, 36.42
2023-04-24T01:23:16.026Z, 36.42
2023-04-24T01:24:16.049Z, 36.44
2023-04-24T01:25:16.131Z, 36.40
2023-04-24T01:26:16.106Z, 36.37
2023-04-24T01:27:16.103Z, 36.32
2023-04-24T01:28:16.106Z, 36.32
2023-04-24T01:29:16.125Z, 36.35
2023-04-24T01:30:16.137Z, 36.33
2023-04-24T01:31:16.204Z, 36.33
2023-04-24T01:32:16.165Z, 36.33
2023-04-24T01:33:16.154Z, 36.35
2023-04-24T01:34:16.178Z, 36.34
2023-04-24T01:35:16.179Z, 36.33
2023-04-24T01:36:16.255Z, 36.34
2023-04-24T01:37:16.231Z, 36.30
2023-04-24T01:38:16.281Z, 36.26
2023-04-24T01:39:16.240Z, 36.26
2023-04-24T01:40:16.293Z, 36.25
2023-04-24T01:41:16.270Z, 36.24
2023-04-24T01:42:16.269Z, 36.23
2023-04-24T01:43:16.265Z, 36.19
2023-04-24T01:44:16.275Z, 36.17
2023-04-24T01:45:16.289Z, 36.13
2023-04-24T01:46:16.343Z, 36.18
2023-04-24T01:47:16.403Z, 36.22
2023-04-24T01:48:16.383Z, 36.20
2023-04-24T01:49:16.408Z, 36.25
2023-04-24T01:50:16.378Z, 36.19
2023-04-24T01:51:16.455Z, 36.18
2023-04-24T01:52:16.414Z, 36.18
2023-04-24T01:53:16.419Z, 36.13
2023-04-24T01:54:16.516Z, 36.10
2023-04-24T01:55:16.451Z, 36.08
2023-04-24T01:56:16.452Z, 36.08
2023-04-24T01:57:16.446Z, 36.11
2023-04-24T01:58:16.462Z, 36.12
2023-04-24T01:59:16.483Z, 36.12
2023-04-24T02:00:16.484Z, 36.05
2023-04-24T02:01:16.491Z, 36.08
2023-04-24T02:02:16.619Z, 36.12
2023-04-24T02:03:16.669Z, 36.08
2023-04-24T02:04:16.654Z, 36.05
2023-04-24T02:05:16.616Z, 36.06
2023-04-24T02:06:16.588Z, 36.03
2023-04-24T02:07:16.607Z, 36.08
2023-04-24T02:08:16.599Z, 36.09
2023-04-24T02:09:16.614Z, 36.05
2023-04-24T02:10:16.618Z, 36.02
2023-04-24T02:11:16.623Z, 36.04
2023-04-24T02:12:16.698Z, 36.05
2023-04-24T02:13:16.696Z, 36.04
2023-04-24T02:14:16.697Z, 35.96
2023-04-24T02:15:16.695Z, 35.93
2023-04-24T02:16:16.737Z, 35.95
2023-04-24T02:17:16.730Z, 35.98
2023-04-24T02:18:16.708Z, 35.93
2023-04-24T02:19:16.725Z, 35.95
2023-04-24T02:20:16.744Z, 35.93
2023-04-24T02:21:16.813Z, 35.92
2023-04-24T02:22:16.783Z, 35.90
2023-04-24T02:23:16.847Z, 35.84
2023-04-24T02:24:16.800Z, 35.85
2023-04-24T02:25:16.864Z, 35.78
2023-04-24T02:26:16.834Z, 35.78
2023-04-24T02:27:16.835Z, 35.83
2023-04-24T02:28:16.823Z, 35.80
2023-04-24T02:29:16.838Z, 35.79
2023-04-24T02:30:16.850Z, 35.85
2023-04-24T02:31:16.859Z, 35.83
2023-04-24T02:32:17.043Z, 35.75
2023-04-24T02:33:16.914Z, 35.74
2023-04-24T02:34:16.973Z, 35.74
2023-04-24T02:35:16.999Z, 35.77
2023-04-24T02:36:16.985Z, 35.78
2023-04-24T02:37:16.968Z, 35.74
2023-04-24T02:38:16.971Z, 35.76
2023-04-24T02:39:16.971Z, 35.73
2023-04-24T02:40:16.965Z, 35.73
2023-04-24T02:41:17.006Z, 35.72
2023-04-24T02:42:16.996Z, 35.72
2023-04-24T02:43:17.086Z, 35.71
2023-04-24T02:44:17.035Z, 35.71
2023-04-24T02:45:17.103Z, 35.70
2023-04-24T02:46:17.161Z, 35.68
2023-04-24T02:47:17.122Z, 35.65
2023-04-24T02:48:17.090Z, 35.67
2023-04-24T02:49:17.146Z, 35.68
2023-04-24T02:50:17.109Z, 35.68
2023-04-24T02:51:17.145Z, 35.67
2023-04-24T02:52:17.128Z, 35.63
2023-04-24T02:53:17.144Z, 35.60
2023-04-24T02:54:17.132Z, 35.61
2023-04-24T02:55:17.162Z, 35.61
2023-04-24T02:56:17.156Z, 35.66
2023-04-24T02:57:17.166Z, 35.59
2023-04-24T02:58:17.189Z, 35.56
2023-04-24T02:59:17.205Z, 35.57
2023-04-24T03:00:17.246Z, 35.55
2023-04-24T03:01:17.278Z, 35.55
2023-04-24T03:02:17.355Z, 35.53
2023-04-24T03:03:17.432Z, 35.46
2023-04-24T03:04:17.481Z, 35.45
2023-04-24T03:05:17.336Z, 35.52
2023-04-24T03:06:17.322Z, 35.52
2023-04-24T03:07:17.331Z, 35.56
2023-04-24T03:08:17.353Z, 35.52
2023-04-24T03:09:17.341Z, 35.49
2023-04-24T03:10:17.362Z, 35.49
2023-04-24T03:11:17.360Z, 35.44
2023-04-24T03:12:17.376Z, 35.45
2023-04-24T03:13:17.381Z, 35.45
2023-04-24T03:14:17.390Z, 35.47
2023-04-24T03:15:17.470Z, 35.42
2023-04-24T03:16:17.496Z, 35.38
2023-04-24T03:17:17.515Z, 35.37
2023-04-24T03:18:17.558Z, 35.38
2023-04-24T03:19:17.494Z, 35.36
2023-04-24T03:20:17.488Z, 35.38
2023-04-24T03:21:17.526Z, 35.37
2023-04-24T03:22:17.513Z, 35.36
2023-04-24T03:23:17.523Z, 35.38
2023-04-24T03:24:17.602Z, 35.37
2023-04-24T03:25:17.585Z, 35.34
2023-04-24T03:26:17.575Z, 35.33
2023-04-24T03:27:17.567Z, 35.35
2023-04-24T03:28:17.636Z, 35.35
2023-04-24T03:29:17.625Z, 35.31
2023-04-24T03:30:17.685Z, 35.32
2023-04-24T03:31:17.676Z, 35.48
2023-04-24T03:32:17.680Z, 36.74
2023-04-24T03:33:17.648Z, 38.55
2023-04-24T03:34:17.658Z, 39.81
2023-04-24T03:35:17.671Z, 40.50
2023-04-24T03:36:17.697Z, 40.98
2023-04-24T03:37:17.693Z, 41.44
2023-04-24T03:38:17.695Z, 41.78
2023-04-24T03:39:17.767Z, 42.08
2023-04-24T03:40:17.744Z, 42.36
2023-04-24T03:41:17.793Z, 42.64
2023-04-24T03:42:17.789Z, 42.89
2023-04-24T03:43:17.774Z, 43.09
2023-04-24T03:44:17.826Z, 43.36
2023-04-24T03:45:17.807Z, 43.58
2023-04-24T03:46:17.861Z, 43.86
2023-04-24T03:47:17.839Z, 44.06
2023-04-24T03:48:17.801Z, 44.18
2023-04-24T03:49:17.874Z, 44.32
2023-04-24T03:50:17.853Z, 44.49
2023-04-24T03:51:17.894Z, 44.62
2023-04-24T03:52:17.876Z, 44.73
2023-04-24T03:53:17.921Z, 44.80
2023-04-24T03:54:17.898Z, 44.87
2023-04-24T03:55:17.900Z, 44.95
2023-04-24T03:56:17.975Z, 44.96
2023-04-24T03:57:17.939Z, 44.99
2023-04-24T03:58:17.941Z, 45.03
2023-04-24T03:59:17.949Z, 45.05
2023-04-24T04:00:18.023Z, 45.07
2023-04-24T04:01:18.008Z, 45.08
2023-04-24T04:02:18.117Z, 48.35
2023-04-24T04:03:18.264Z, 54.83
2023-04-24T04:04:18.209Z, 57.21
2023-04-24T04:05:18.132Z, 59.77
2023-04-24T04:06:18.090Z, 67.83
2023-04-24T04:07:18.069Z, 59.14
2023-04-24T04:08:18.082Z, 54.23
2023-04-24T04:09:18.071Z, 54.68
2023-04-24T04:10:18.084Z, 56.26
2023-04-24T04:11:18.075Z, 58.80
2023-04-24T04:12:18.100Z, 68.41
2023-04-24T04:13:18.130Z, 65.20
2023-04-24T04:14:18.118Z, 57.82
2023-04-24T04:15:18.131Z, 55.70
2023-04-24T04:16:18.241Z, 55.69
2023-04-24T04:17:18.265Z, 56.85
2023-04-24T04:18:18.275Z, 57.73
2023-04-24T04:19:18.292Z, 58.26
2023-04-24T04:20:18.260Z, 60.25
2023-04-24T04:21:18.256Z, 61.47
2023-04-24T04:22:18.244Z, 61.46
2023-04-24T04:23:18.252Z, 61.32
2023-04-24T04:24:18.342Z, 61.09
2023-04-24T04:25:18.332Z, 60.88
2023-04-24T04:26:18.314Z, 60.71
2023-04-24T04:27:18.318Z, 60.56
2023-04-24T04:28:18.326Z, 60.19
2023-04-24T04:29:18.892Z, 59.91
2023-04-24T04:30:18.388Z, 59.70
2023-04-24T04:31:18.452Z, 59.34
2023-04-24T04:32:18.394Z, 59.21
2023-04-24T04:33:18.393Z, 59.11
2023-04-24T04:34:18.459Z, 58.86
2023-04-24T04:35:18.428Z, 58.67
2023-04-24T04:36:18.482Z, 58.39
2023-04-24T04:37:18.468Z, 58.08
2023-04-24T04:38:18.455Z, 57.95
2023-04-24T04:39:18.448Z, 57.81
2023-04-24T04:40:18.460Z, 57.66
2023-04-24T04:41:18.514Z, 57.43
2023-04-24T04:42:18.493Z, 57.21
2023-04-24T04:43:18.501Z, 56.93
2023-04-24T04:44:18.520Z, 56.71
2023-04-24T04:45:18.594Z, 56.53
2023-04-24T04:46:18.612Z, 56.44
2023-04-24T04:47:18.659Z, 56.34
2023-04-24T04:48:18.630Z, 56.13
2023-04-24T04:49:18.619Z, 55.98
2023-04-24T04:50:18.614Z, 55.78
2023-04-24T04:51:18.619Z, 55.38
2023-04-24T04:52:18.665Z, 54.99
2023-04-24T04:53:18.662Z, 55.13
2023-04-24T04:54:18.656Z, 55.28
2023-04-24T04:55:18.656Z, 55.18
2023-04-24T04:56:18.697Z, 55.05
2023-04-24T04:57:18.681Z, 54.90
2023-04-24T04:58:18.776Z, 54.61
2023-04-24T04:59:18.726Z, 54.44
2023-04-24T05:00:18.758Z, 54.28
2023-04-24T05:01:18.788Z, 54.25
2023-04-24T05:02:18.859Z, 54.25
2023-04-24T05:03:21.375Z, 54.07
2023-04-24T05:04:18.948Z, 53.98
2023-04-24T05:05:18.787Z, 53.81
2023-04-24T05:06:18.803Z, 53.64
2023-04-24T05:07:18.798Z, 53.46
2023-04-24T05:08:27.053Z, 53.34
2023-04-24T05:09:18.845Z, 53.22
2023-04-24T05:10:18.843Z, 53.17
2023-04-24T05:11:18.853Z, 53.11
2023-04-24T05:12:18.861Z, 52.98
2023-04-24T05:13:22.856Z, 52.87
2023-04-24T05:14:18.902Z, 52.72
2023-04-24T05:15:18.905Z, 52.53
2023-04-24T05:16:18.972Z, 52.47
2023-04-24T05:17:19.001Z, 52.33
2023-04-24T05:18:18.996Z, 52.10
2023-04-24T05:19:18.986Z, 51.78
2023-04-24T05:20:19.000Z, 51.45
2023-04-24T05:21:18.984Z, 51.14
2023-04-24T05:22:19.064Z, 50.98
2023-04-24T05:23:19.037Z, 50.70
2023-04-24T05:24:19.087Z, 50.54
2023-04-24T05:25:19.057Z, 50.40
2023-04-24T05:26:19.053Z, 50.22
2023-04-24T05:27:19.056Z, 50.07
2023-04-24T05:28:19.063Z, 49.96
2023-04-24T05:29:19.069Z, 49.81
2023-04-24T05:30:19.088Z, 49.64
2023-04-24T05:31:19.151Z, 49.47
2023-04-24T05:32:19.115Z, 49.40
2023-04-24T05:33:19.138Z, 49.24
2023-04-24T05:34:19.127Z, 49.15
2023-04-24T05:35:19.148Z, 49.07
2023-04-24T05:36:19.196Z, 48.99
2023-04-24T05:37:19.186Z, 48.94
2023-04-24T05:38:19.208Z, 48.84
2023-04-24T05:39:19.221Z, 48.74
2023-04-24T05:40:19.206Z, 48.69
2023-04-24T05:41:19.252Z, 48.59
2023-04-24T05:42:19.233Z, 48.52
2023-04-24T05:43:19.317Z, 48.36
2023-04-24T05:44:19.302Z, 48.35
2023-04-24T05:45:19.316Z, 48.30
2023-04-24T05:46:19.397Z, 48.23
2023-04-24T05:47:19.357Z, 48.06
2023-04-24T05:48:19.334Z, 47.97
2023-04-24T05:49:19.392Z, 47.98
2023-04-24T05:50:19.356Z, 47.95
2023-04-24T05:51:19.394Z, 47.89
2023-04-24T05:52:19.389Z, 47.82
2023-04-24T05:53:19.386Z, 47.77
2023-04-24T05:54:19.396Z, 47.75
2023-04-24T05:55:19.424Z, 47.66
2023-04-24T05:56:19.418Z, 47.60
2023-04-24T05:57:19.414Z, 47.51
2023-04-24T05:58:19.494Z, 47.46
2023-04-24T05:59:19.456Z, 47.39
2023-04-24T06:00:19.546Z, 47.38
2023-04-24T06:01:19.504Z, 47.31
2023-04-24T06:02:19.564Z, 47.31
2023-04-24T06:03:19.677Z, 47.31
2023-04-24T06:04:19.876Z, 47.22
2023-04-24T06:05:19.690Z, 47.21
2023-04-24T06:06:19.561Z, 47.17
2023-04-24T06:07:19.639Z, 47.08
2023-04-24T06:08:19.624Z, 47.00
2023-04-24T06:09:19.613Z, 46.98
2023-04-24T06:10:19.664Z, 46.95
2023-04-24T06:11:19.640Z, 46.91
2023-04-24T06:12:19.696Z, 46.88
2023-04-24T06:13:19.684Z, 46.85
2023-04-24T06:14:19.697Z, 46.75
2023-04-24T06:15:19.678Z, 46.81
2023-04-24T06:16:19.760Z, 46.87
2023-04-24T06:17:19.739Z, 46.74
2023-04-24T06:18:19.764Z, 46.72
2023-04-24T06:19:19.723Z, 46.72
2023-04-24T06:20:19.730Z, 46.67
2023-04-24T06:21:19.772Z, 46.60
2023-04-24T06:22:19.744Z, 46.48
2023-04-24T06:23:19.808Z, 46.50
2023-04-24T06:24:19.824Z, 46.49
2023-04-24T06:25:19.814Z, 46.43
2023-04-24T06:26:19.810Z, 46.36
2023-04-24T06:27:19.803Z, 46.32
2023-04-24T06:28:19.823Z, 46.32
2023-04-24T06:29:19.836Z, 46.30
2023-04-24T06:30:19.850Z, 46.32
2023-04-24T06:31:19.888Z, 46.27
2023-04-24T06:32:19.990Z, 46.28
2023-04-24T06:33:21.885Z, 46.21
2023-04-24T06:34:19.909Z, 46.05
2023-04-24T06:35:19.925Z, 46.06
2023-04-24T06:36:19.937Z, 46.04
2023-04-24T06:37:19.937Z, 46.01
2023-04-24T06:38:20.018Z, 45.93
2023-04-24T06:39:19.988Z, 45.96
2023-04-24T06:40:20.047Z, 45.98
2023-04-24T06:41:20.036Z, 45.96
2023-04-24T06:42:20.069Z, 45.91
2023-04-24T06:43:20.049Z, 45.87
2023-04-24T06:44:20.056Z, 45.88
2023-04-24T06:45:20.044Z, 45.90
2023-04-24T06:46:20.105Z, 45.84
2023-04-24T06:47:20.125Z, 45.83
2023-04-24T06:48:20.096Z, 45.85
2023-04-24T06:49:20.099Z, 45.73
2023-04-24T06:50:20.092Z, 45.69
2023-04-24T06:51:20.091Z, 45.68
2023-04-24T06:52:20.109Z, 45.61
2023-04-24T06:53:20.119Z, 45.63
2023-04-24T06:54:20.202Z, 45.55
2023-04-24T06:55:20.168Z, 45.62
2023-04-24T06:56:20.228Z, 45.55
2023-04-24T06:57:20.188Z, 45.48
2023-04-24T06:58:20.189Z, 45.50
2023-04-24T06:59:20.196Z, 45.49
2023-04-24T07:00:20.236Z, 45.43
2023-04-24T07:01:20.240Z, 45.41
2023-04-24T07:02:20.286Z, 45.38
2023-04-24T07:03:20.444Z, 45.38
2023-04-24T07:04:20.450Z, 45.29
2023-04-24T07:05:20.353Z, 45.28
2023-04-24T07:06:20.327Z, 45.33
2023-04-24T07:07:20.329Z, 45.28
2023-04-24T07:08:20.332Z, 45.22
2023-04-24T07:09:20.368Z, 45.23
2023-04-24T07:10:20.570Z, 45.21
2023-04-24T07:11:20.328Z, 45.16
2023-04-24T07:12:20.376Z, 45.10
2023-04-24T07:13:20.355Z, 45.09
2023-04-24T07:14:20.449Z, 45.13
2023-04-24T07:15:20.401Z, 45.12
2023-04-24T07:16:20.412Z, 45.13
2023-04-24T07:17:20.444Z, 45.10
2023-04-24T07:18:20.416Z, 44.96
2023-04-24T07:19:20.436Z, 44.87
2023-04-24T07:20:20.452Z, 44.80
2023-04-24T07:21:20.687Z, 44.79
2023-04-24T07:22:20.576Z, 44.83
2023-04-24T07:23:20.716Z, 44.85
2023-04-24T07:24:22.272Z, 44.86
2023-04-24T07:25:20.710Z, 44.85
2023-04-24T07:26:20.698Z, 44.79
2023-04-24T07:27:20.700Z, 44.76
2023-04-24T07:28:20.712Z, 44.69
2023-04-24T07:29:20.711Z, 44.63
2023-04-24T07:30:20.702Z, 44.61
2023-04-24T07:31:20.733Z, 44.53
2023-04-24T07:32:20.703Z, 44.55
2023-04-24T07:33:20.752Z, 44.53
2023-04-24T07:34:20.702Z, 44.60
2023-04-24T07:35:20.711Z, 44.56
2023-04-24T07:36:20.709Z, 44.66
2023-04-24T07:37:20.835Z, 44.66
2023-04-24T07:38:20.836Z, 44.62
2023-04-24T07:39:20.838Z, 44.58
2023-04-24T07:40:20.843Z, 44.58
2023-04-24T07:41:20.842Z, 44.55
2023-04-24T07:42:20.846Z, 44.53
2023-04-24T07:43:20.844Z, 44.50
2023-04-24T07:44:20.840Z, 44.43
2023-04-24T07:45:20.846Z, 44.35
2023-04-24T07:46:20.887Z, 44.38
2023-04-24T07:47:20.875Z, 44.36
2023-04-24T07:48:20.844Z, 44.20
2023-04-24T07:49:20.986Z, 44.23
2023-04-24T07:50:20.987Z, 44.21
2023-04-24T07:51:20.985Z, 44.20
2023-04-24T07:52:21.040Z, 44.23
2023-04-24T07:53:20.991Z, 44.18
2023-04-24T07:54:20.998Z, 44.19
2023-04-24T07:55:24.152Z, 44.25
2023-04-24T07:56:20.994Z, 44.22
2023-04-24T07:57:21.012Z, 44.15
2023-04-24T07:58:20.991Z, 44.18
2023-04-24T07:59:21.123Z, 44.13
2023-04-24T08:00:21.017Z, 44.07
2023-04-24T08:01:21.015Z, 44.06
2023-04-24T08:02:21.061Z, 44.02
2023-04-24T08:03:21.314Z, 44.03
2023-04-24T08:04:21.259Z, 44.01
2023-04-24T08:05:21.421Z, 43.97
2023-04-24T08:06:21.133Z, 44.01
2023-04-24T08:07:21.134Z, 44.04
2023-04-24T08:08:21.132Z, 44.01
2023-04-24T08:09:21.167Z, 44.00
2023-04-24T08:10:21.144Z, 44.00
2023-04-24T08:11:23.062Z, 43.93
2023-04-24T08:12:21.172Z, 43.87
2023-04-24T08:13:21.136Z, 43.85
2023-04-24T08:14:21.140Z, 43.83
2023-04-24T08:15:21.283Z, 43.81
2023-04-24T08:16:21.322Z, 43.81
2023-04-24T08:17:21.279Z, 43.73
2023-04-24T08:18:21.328Z, 43.70
2023-04-24T08:19:21.285Z, 43.66
2023-04-24T08:20:21.450Z, 43.67
2023-04-24T08:21:21.294Z, 43.59
2023-04-24T08:22:21.295Z, 43.60
2023-04-24T08:23:21.289Z, 43.58
2023-04-24T08:24:21.290Z, 43.56
2023-04-24T08:25:21.290Z, 43.54
2023-04-24T08:26:21.430Z, 43.56
2023-04-24T08:27:21.326Z, 43.50
2023-04-24T08:28:21.433Z, 43.51
2023-04-24T08:29:21.432Z, 43.53
2023-04-24T08:30:21.509Z, 43.44
2023-04-24T08:31:21.466Z, 43.44
2023-04-24T08:32:21.481Z, 43.44
2023-04-24T08:33:21.432Z, 43.36
2023-04-24T08:34:21.441Z, 43.39
2023-04-24T08:35:21.433Z, 43.35
2023-04-24T08:36:21.429Z, 43.30
2023-04-24T08:37:21.461Z, 43.26
2023-04-24T08:38:21.460Z, 43.23
2023-04-24T08:39:21.572Z, 43.23
2023-04-24T08:40:21.577Z, 43.20
2023-04-24T08:41:21.573Z, 43.14
2023-04-24T08:42:21.567Z, 43.07
2023-04-24T08:43:21.572Z, 43.11
2023-04-24T08:44:21.573Z, 43.07
2023-04-24T08:45:21.573Z, 43.13
2023-04-24T08:46:21.655Z, 43.11
2023-04-24T08:47:21.697Z, 43.11
2023-04-24T08:48:30.269Z, 43.17
2023-04-24T08:49:21.605Z, 43.18
2023-04-24T08:50:21.604Z, 43.10
2023-04-24T08:51:21.603Z, 43.06
2023-04-24T08:52:21.604Z, 43.09
2023-04-24T08:53:21.616Z, 43.04
2023-04-24T08:54:21.714Z, 43.02
2023-04-24T08:55:21.680Z, 43.00
2023-04-24T08:56:21.673Z, 42.89
2023-04-24T08:57:21.705Z, 42.90
2023-04-24T08:58:21.684Z, 42.91
2023-04-24T08:59:21.706Z, 42.86
2023-04-24T09:00:21.668Z, 42.82
2023-04-24T09:01:21.708Z, 42.85
2023-04-24T09:02:21.966Z, 42.87
2023-04-24T09:03:21.941Z, 42.92
2023-04-24T09:04:22.071Z, 42.85
2023-04-24T09:05:21.856Z, 42.87
2023-04-24T09:06:22.022Z, 42.84
2023-04-24T09:07:21.875Z, 42.91
2023-04-24T09:08:21.969Z, 42.77
2023-04-24T09:09:21.884Z, 42.75
2023-04-24T09:10:22.027Z, 42.72
2023-04-24T09:11:22.029Z, 42.74
2023-04-24T09:12:22.031Z, 42.74
2023-04-24T09:13:22.029Z, 42.69
2023-04-24T09:14:22.040Z, 42.64
2023-04-24T09:15:22.037Z, 42.67
2023-04-24T09:16:22.055Z, 42.69
2023-04-24T09:17:22.019Z, 42.67
2023-04-24T09:18:22.041Z, 42.64
2023-04-24T09:19:22.053Z, 42.62
2023-04-24T09:20:22.032Z, 42.58
2023-04-24T09:21:22.042Z, 42.49
2023-04-24T09:22:22.204Z, 42.47
2023-04-24T09:23:22.074Z, 42.48
2023-04-24T09:24:22.074Z, 42.46
2023-04-24T09:25:22.066Z, 42.56
2023-04-24T09:26:22.219Z, 42.54
2023-04-24T09:27:22.213Z, 42.51
2023-04-24T09:28:22.214Z, 42.46
2023-04-24T09:29:22.208Z, 42.42
2023-04-24T09:30:22.217Z, 42.51
2023-04-24T09:31:22.246Z, 42.44
2023-04-24T09:32:22.288Z, 42.37
2023-04-24T09:33:22.222Z, 42.40
2023-04-24T09:34:22.219Z, 42.43
2023-04-24T09:35:22.215Z, 42.38
2023-04-24T09:36:22.238Z, 42.36
2023-04-24T09:37:22.220Z, 42.25
2023-04-24T09:38:22.255Z, 42.36
2023-04-24T09:39:22.248Z, 42.32
2023-04-24T09:40:22.273Z, 42.31
2023-04-24T09:41:22.254Z, 42.29
2023-04-24T09:42:22.392Z, 42.21
2023-04-24T09:43:22.391Z, 42.27
2023-04-24T09:44:22.399Z, 42.22
2023-04-24T09:45:22.402Z, 42.23
2023-04-24T09:46:22.463Z, 42.24
2023-04-24T09:47:22.420Z, 42.13
2023-04-24T09:48:22.406Z, 42.04
2023-04-24T09:49:22.402Z, 42.09
2023-04-24T09:50:22.568Z, 42.12
2023-04-24T09:51:22.402Z, 42.07
2023-04-24T09:52:22.575Z, 42.06
2023-04-24T09:53:22.430Z, 42.03
2023-04-24T09:54:22.753Z, 41.98
2023-04-24T09:55:22.571Z, 41.99
2023-04-24T09:56:22.581Z, 41.94
2023-04-24T09:57:22.578Z, 41.95
2023-04-24T09:58:22.574Z, 41.92
2023-04-24T09:59:22.584Z, 42.00
2023-04-24T10:00:22.606Z, 42.02
2023-04-24T10:01:22.657Z, 42.50
2023-04-24T10:02:22.685Z, 43.90
2023-04-24T10:03:22.736Z, 44.26
2023-04-24T10:04:22.616Z, 44.57
2023-04-24T10:05:22.974Z, 44.71
2023-04-24T10:06:22.613Z, 44.73
2023-04-24T10:07:22.755Z, 44.74
2023-04-24T10:08:22.768Z, 44.75
2023-04-24T10:09:22.757Z, 44.76
2023-04-24T10:10:22.760Z, 44.76
2023-04-24T10:11:22.752Z, 44.79
2023-04-24T10:12:22.757Z, 44.77
2023-04-24T10:13:22.762Z, 44.78
2023-04-24T10:14:22.776Z, 44.77
2023-04-24T10:15:22.754Z, 44.77
2023-04-24T10:16:22.854Z, 44.75
2023-04-24T10:17:22.762Z, 44.74
2023-04-24T10:18:22.805Z, 44.70
2023-04-24T10:19:22.816Z, 44.70
2023-04-24T10:20:22.770Z, 44.73
2023-04-24T10:21:22.766Z, 44.70
2023-04-24T10:22:22.780Z, 44.64
2023-04-24T10:23:22.851Z, 44.62
2023-04-24T10:24:22.997Z, 44.58
2023-04-24T10:25:22.945Z, 44.54
2023-04-24T10:26:22.938Z, 44.49
2023-04-24T10:27:22.948Z, 44.42
2023-04-24T10:28:22.944Z, 44.43
2023-04-24T10:29:22.960Z, 44.38
2023-04-24T10:30:22.960Z, 44.37
2023-04-24T10:31:23.001Z, 44.21
2023-04-24T10:32:22.989Z, 43.94
2023-04-24T10:33:23.128Z, 43.72
2023-04-24T10:34:23.111Z, 43.50
2023-04-24T10:35:23.122Z, 43.32
2023-04-24T10:36:22.969Z, 43.13
2023-04-24T10:37:23.115Z, 42.96
2023-04-24T10:38:22.978Z, 42.89
2023-04-24T10:39:27.404Z, 42.79
2023-04-24T10:40:22.984Z, 42.70
2023-04-24T10:41:23.121Z, 42.59
2023-04-24T10:42:23.126Z, 42.60
2023-04-24T10:43:23.116Z, 42.53
2023-04-24T10:44:23.119Z, 42.43
2023-04-24T10:45:23.123Z, 42.33
2023-04-24T10:46:23.167Z, 42.27
2023-04-24T10:47:23.127Z, 42.20
2023-04-24T10:48:23.131Z, 42.18
2023-04-24T10:49:23.131Z, 42.17
2023-04-24T10:50:23.136Z, 42.16
2023-04-24T10:51:23.300Z, 42.13
2023-04-24T10:52:23.308Z, 42.12
2023-04-24T10:53:23.148Z, 42.05
2023-04-24T10:54:23.171Z, 42.03
2023-04-24T10:55:23.296Z, 41.92
2023-04-24T10:56:23.303Z, 41.91
2023-04-24T10:57:23.304Z, 41.83
2023-04-24T10:58:23.315Z, 41.88
2023-04-24T10:59:23.303Z, 41.81
2023-04-24T11:00:23.308Z, 41.82
2023-04-24T11:01:23.332Z, 41.87
2023-04-24T11:02:23.374Z, 41.82
2023-04-24T11:03:23.426Z, 41.78
2023-04-24T11:04:23.538Z, 41.69
2023-04-24T11:05:23.321Z, 41.64
2023-04-24T11:06:23.330Z, 41.65
2023-04-24T11:07:23.307Z, 41.63
2023-04-24T11:08:23.321Z, 41.61
2023-04-24T11:09:23.486Z, 41.58
2023-04-24T11:10:23.486Z, 41.51
2023-04-24T11:11:23.486Z, 41.52
2023-04-24T11:12:23.474Z, 41.47
2023-04-24T11:13:23.488Z, 41.49
2023-04-24T11:14:23.481Z, 41.40
2023-04-24T11:15:23.492Z, 41.49
2023-04-24T11:16:23.545Z, 41.50
2023-04-24T11:17:23.572Z, 41.45
2023-04-24T11:18:23.486Z, 41.43
2023-04-24T11:19:23.506Z, 41.45
2023-04-24T11:21:23.670Z, 41.44
2023-04-24T11:22:23.524Z, 41.39
2023-04-24T11:23:23.520Z, 41.39
2023-04-24T11:24:23.497Z, 41.38
2023-04-24T11:25:23.532Z, 41.34
2023-04-24T11:26:23.605Z, 41.35
2023-04-24T11:27:23.700Z, 41.35
2023-04-24T11:28:23.661Z, 41.33
2023-04-24T11:29:24.520Z, 41.25
2023-04-24T11:30:23.669Z, 41.23
2023-04-24T11:31:23.702Z, 41.18
2023-04-24T11:32:23.718Z, 41.17
2023-04-24T11:33:23.669Z, 41.23
2023-04-24T11:34:23.666Z, 41.20
2023-04-24T11:35:23.669Z, 41.12
2023-04-24T11:36:23.669Z, 41.17
2023-04-24T11:37:23.661Z, 41.11
2023-04-24T11:38:24.944Z, 41.09
2023-04-24T11:39:23.670Z, 41.07
2023-04-24T11:40:23.840Z, 41.10
2023-04-24T11:41:23.848Z, 41.04
2023-04-24T11:42:23.839Z, 40.99
2023-04-24T11:43:23.850Z, 40.93
2023-04-24T11:44:23.845Z, 40.97
2023-04-24T11:45:23.848Z, 40.96
2023-04-24T11:46:23.884Z, 40.94
2023-04-24T11:47:23.919Z, 40.96
2023-04-24T11:48:24.434Z, 40.95
2023-04-24T11:49:23.843Z, 40.98
2023-04-24T11:50:23.861Z, 42.44
2023-04-24T11:51:23.863Z, 46.99
2023-04-24T11:52:23.850Z, 51.38
2023-04-24T11:53:24.020Z, 56.06
2023-04-24T11:54:24.020Z, 60.87
2023-04-24T11:55:24.010Z, 67.38
2023-04-24T11:56:24.023Z, 56.14
2023-04-24T11:57:24.024Z, 54.14
2023-04-24T11:58:24.031Z, 55.07
2023-04-24T11:59:24.023Z, 56.76
2023-04-24T12:00:24.038Z, 60.12
2023-04-24T12:01:24.028Z, 69.92
2023-04-24T12:02:24.157Z, 60.64
2023-04-24T12:03:24.233Z, 55.73
2023-04-24T12:04:24.322Z, 55.27
2023-04-24T12:05:24.311Z, 56.45
2023-04-24T12:06:24.401Z, 57.08
2023-04-24T12:07:24.064Z, 57.34
2023-04-24T12:08:24.198Z, 57.61
2023-04-24T12:09:24.201Z, 57.75
2023-04-24T12:10:24.212Z, 57.86
2023-04-24T12:11:24.206Z, 57.90
2023-04-24T12:12:24.204Z, 57.89
2023-04-24T12:13:24.209Z, 57.86
2023-04-24T12:14:24.194Z, 57.81
2023-04-24T12:15:24.201Z, 57.82
2023-04-24T12:16:24.257Z, 57.71
2023-04-24T12:17:24.210Z, 57.68
2023-04-24T12:18:24.200Z, 57.56
2023-04-24T12:19:24.222Z, 57.47
2023-04-24T12:20:24.211Z, 57.39
2023-04-24T12:21:24.214Z, 57.22
2023-04-24T12:22:24.209Z, 57.11
2023-04-24T12:23:24.205Z, 56.98
2023-04-24T12:24:24.385Z, 56.92
2023-04-24T12:25:24.396Z, 56.71
2023-04-24T12:26:24.419Z, 56.58
2023-04-24T12:27:24.388Z, 56.43
2023-04-24T12:28:24.383Z, 56.30
2023-04-24T12:29:24.381Z, 56.19
2023-04-24T12:30:24.382Z, 56.16